Time;durP1;ratioP1;P1;durP2;ratioP2;P2;SDS_P1;SDS_P2;PMS_P1;PMS_P2;Temp;Humidity;BMP_temperature;BMP_pressure;BME280_temperature;BME280_humidity;BME280_pressure;Samples;Min_cycle;Max_cycle;Signal;HPM_P1;HPM_P2
2022/07/04 17:23:33;;;;;;;4.85;1.40;;;23.10;69.50;;;;;;5106125;27;1386793;-51
2022/07/04 17:26:00;;;;;;;7.00;1.73;;;23.00;70.10;;;;;;5118920;27;20044;-50
2022/07/04 17:28:27;;;;;;;6.63;1.52;;;22.90;70.70;;;;;;5123037;28;20043;-50
2022/07/04 17:30:55;;;;;;;5.88;1.40;;;22.90;70.70;;;;;;5130947;28;20042;-49
2022/07/04 17:33:22;;;;;;;5.40;1.90;;;22.90;71.20;;;;;;5130354;27;20375;-54
2022/07/04 17:35:48;;;;;;;3.92;1.83;;;22.90;70.70;;;;;;5129727;28;20061;-53
2022/07/04 17:38:15;;;;;;;4.18;1.77;;;22.80;70.40;;;;;;5112807;28;20102;-51
2022/07/04 17:40:43;;;;;;;8.07;2.03;;;22.80;71.10;;;;;;5111229;28;20039;-53
2022/07/04 17:43:16;;;;;;;9.02;2.33;;;22.80;71.50;;;;;;5110968;28;20040;-52
2022/07/04 17:45:50;;;;;;;5.63;2.15;;;22.90;71.40;;;;;;5111124;28;20035;-58
2022/07/04 17:48:17;;;;;;;8.57;2.83;;;23.00;71.20;;;;;;5123614;28;20067;-55
2022/07/04 17:50:44;;;;;;;6.15;2.67;;;23.70;70.40;;;;;;5130577;27;20035;-56
2022/07/04 17:53:10;;;;;;;8.07;3.00;;;24.40;68.70;;;;;;5130521;28;20086;-56
2022/07/04 17:55:40;;;;;;;6.13;3.00;;;24.90;67.30;;;;;;5124903;27;20054;-53
2022/07/04 17:58:06;;;;;;;7.70;2.00;;;25.50;67.20;;;;;;5118708;28;20558;-52
2022/07/04 18:00:33;;;;;;;3.65;1.48;;;25.80;64.80;;;;;;5130487;28;20089;-51
2022/07/04 18:03:00;;;;;;;4.45;1.33;;;25.90;64.80;;;;;;5118221;28;20047;-52
2022/07/04 18:05:27;;;;;;;4.72;1.50;;;26.10;64.30;;;;;;5110838;28;20444;-51
2022/07/04 18:07:53;;;;;;;4.30;2.25;;;26.10;64.90;;;;;;5110655;28;20089;-57
2022/07/04 18:10:20;;;;;;;7.43;2.47;;;26.20;64.00;;;;;;5110736;28;20036;-57
2022/07/04 18:12:47;;;;;;;4.57;1.30;;;25.90;64.40;;;;;;5110761;28;20399;-55
2022/07/04 18:15:14;;;;;;;3.30;1.08;;;25.90;64.00;;;;;;5110591;28;20054;-57
2022/07/04 18:17:40;;;;;;;2.95;1.20;;;25.80;63.60;;;;;;5117887;28;20039;-53
2022/07/04 18:20:07;;;;;;;4.82;1.50;;;25.40;64.60;;;;;;5130093;27;20189;-52
2022/07/04 18:22:34;;;;;;;4.78;1.55;;;25.10;65.50;;;;;;5129698;27;20052;-53
2022/07/04 18:25:01;;;;;;;4.47;1.40;;;24.60;66.30;;;;;;5129574;27;20046;-55
2022/07/04 18:27:27;;;;;;;4.70;1.60;;;24.10;67.50;;;;;;5130107;27;20047;-56
2022/07/04 18:29:54;;;;;;;7.53;1.90;;;23.80;68.40;;;;;;5130178;28;20039;-53
2022/07/04 18:32:21;;;;;;;8.10;1.65;;;23.50;68.80;;;;;;5129924;28;20073;-54
2022/07/04 18:34:48;;;;;;;3.60;1.60;;;23.40;69.50;;;;;;5117162;28;20043;-53
2022/07/04 18:37:14;;;;;;;4.40;1.55;;;23.20;69.70;;;;;;5116011;28;20040;-55
2022/07/04 18:39:41;;;;;;;6.13;1.60;;;23.00;70.00;;;;;;5115514;28;20027;-52
2022/07/04 18:44:53;;;;;;;5.25;1.90;;;23.00;70.30;;;;;;5115925;28;20040;-56
2022/07/04 18:47:20;;;;;;;5.32;1.73;;;22.90;70.70;;;;;;5115898;28;20049;-52
2022/07/04 18:49:47;;;;;;;5.68;1.92;;;22.60;70.90;;;;;;5115834;28;20546;-55
2022/07/04 18:52:14;;;;;;;4.05;1.40;;;22.50;71.20;;;;;;5115084;28;20047;-54
2022/07/04 18:54:40;;;;;;;4.63;1.65;;;22.40;72.00;;;;;;5116065;28;20039;-56
2022/07/04 18:57:10;;;;;;;3.60;1.40;;;22.30;71.60;;;;;;5115810;28;20525;-49
2022/07/04 18:59:37;;;;;;;6.68;1.58;;;22.30;71.90;;;;;;5115608;28;20100;-47
2022/07/04 19:02:04;;;;;;;5.18;1.38;;;22.30;72.00;;;;;;5115447;28;20440;-57
2022/07/04 19:04:31;;;;;;;2.63;1.35;;;22.20;72.20;;;;;;5115624;28;20043;-51
2022/07/04 19:06:57;;;;;;;3.85;1.70;;;22.20;72.00;;;;;;5115282;28;20040;-52
2022/07/04 19:09:24;;;;;;;6.25;1.70;;;22.10;72.30;;;;;;5115438;28;20039;-53
2022/07/04 19:11:51;;;;;;;3.45;1.40;;;21.80;72.60;;;;;;5114026;28;20063;-54
2022/07/04 19:14:18;;;;;;;6.28;1.63;;;21.40;73.10;;;;;;5115508;28;20562;-55
2022/07/04 19:16:44;;;;;;;7.50;1.98;;;21.50;73.60;;;;;;5115327;28;20039;-53
2022/07/04 19:19:12;;;;;;;5.13;1.77;;;21.50;73.60;;;;;;5115389;28;20104;-53
2022/07/04 19:21:38;;;;;;;3.45;1.55;;;21.40;73.50;;;;;;5115022;28;20482;-56
2022/07/04 19:24:05;;;;;;;3.92;1.55;;;21.30;73.80;;;;;;5114528;28;20393;-55
2022/07/04 19:26:32;;;;;;;4.10;2.10;;;21.40;74.20;;;;;;5115138;28;20481;-52
2022/07/04 19:28:59;;;;;;;3.60;2.08;;;21.30;73.90;;;;;;5115166;28;20425;-52
2022/07/04 19:31:25;;;;;;;6.70;1.80;;;21.20;73.90;;;;;;5114974;28;20104;-49
2022/07/04 19:33:52;;;;;;;4.18;1.60;;;21.20;73.80;;;;;;5114066;28;20101;-47
2022/07/04 19:36:19;;;;;;;3.28;1.38;;;21.10;73.80;;;;;;5114948;28;20039;-49
2022/07/04 19:38:46;;;;;;;6.90;4.13;;;21.10;73.90;;;;;;5109206;28;20489;-50
2022/07/04 19:41:13;;;;;;;16.13;10.55;;;21.00;74.10;;;;;;5114996;28;20052;-51
2022/07/04 19:43:39;;;;;;;33.80;20.90;;;20.90;74.20;;;;;;5114257;28;20047;-48
2022/07/04 19:46:06;;;;;;;12.63;7.65;;;20.80;74.30;;;;;;5113624;28;20040;-49
2022/07/04 19:48:33;;;;;;;11.52;4.43;;;20.70;74.50;;;;;;5114787;28;20036;-51
2022/07/04 19:51:04;;;;;;;5.35;3.00;;;20.70;74.20;;;;;;5113761;28;20428;-48
2022/07/04 19:53:31;;;;;;;7.28;3.45;;;20.60;74.40;;;;;;5113950;28;20117;-50
2022/07/04 19:55:58;;;;;;;5.28;2.10;;;20.50;74.40;;;;;;5114532;28;20187;-49
2022/07/04 19:58:24;;;;;;;4.70;2.00;;;20.40;74.20;;;;;;5114131;28;20036;-49
2022/07/04 20:00:51;;;;;;;6.95;3.70;;;20.30;74.70;;;;;;5114291;28;20039;-47
2022/07/04 20:03:18;;;;;;;4.95;3.08;;;20.30;74.70;;;;;;5114263;28;20040;-51
2022/07/04 20:05:45;;;;;;;4.60;3.00;;;20.20;74.60;;;;;;5114313;28;20063;-54
2022/07/04 20:08:13;;;;;;;10.43;6.03;;;20.20;74.50;;;;;;5114254;28;20043;-50
2022/07/04 20:10:40;;;;;;;7.07;4.05;;;20.20;74.70;;;;;;5114089;28;20043;-47
2022/07/04 20:13:09;;;;;;;5.43;2.05;;;20.10;74.50;;;;;;5114080;28;20044;-44
2022/07/04 20:15:38;;;;;;;3.55;1.90;;;20.10;74.30;;;;;;5114147;28;20134;-50
2022/07/04 20:18:05;;;;;;;3.15;1.70;;;20.00;74.40;;;;;;5112744;28;20113;-47
2022/07/04 20:20:32;;;;;;;5.22;1.67;;;19.90;74.20;;;;;;5113654;28;20490;-50
2022/07/04 20:22:59;;;;;;;4.80;2.58;;;19.80;74.30;;;;;;5112871;28;20498;-50
2022/07/04 20:25:26;;;;;;;3.22;1.60;;;19.80;74.20;;;;;;5113937;28;20394;-52
2022/07/04 20:27:53;;;;;;;2.70;1.60;;;19.80;74.00;;;;;;5113215;28;20791;-51
2022/07/04 20:30:20;;;;;;;3.63;1.70;;;19.70;73.90;;;;;;5114226;28;20044;-51
2022/07/04 20:32:46;;;;;;;6.03;1.60;;;19.60;73.80;;;;;;5113192;28;20044;-54
2022/07/04 20:35:14;;;;;;;3.20;1.48;;;19.60;74.10;;;;;;5113802;28;20050;-51
2022/07/04 20:37:41;;;;;;;3.47;1.33;;;19.50;73.60;;;;;;5113795;28;20043;-50
2022/07/04 20:40:08;;;;;;;3.33;2.00;;;19.50;73.80;;;;;;5113590;28;20047;-47
2022/07/04 20:42:34;;;;;;;5.60;2.55;;;19.40;73.60;;;;;;5112997;28;20092;-45
2022/07/04 20:45:03;;;;;;;4.47;2.60;;;19.40;73.70;;;;;;5113742;28;20375;-48
2022/07/04 20:47:30;;;;;;;5.40;2.22;;;19.30;73.60;;;;;;5111827;27;20039;-52
2022/07/04 20:49:56;;;;;;;4.53;3.40;;;19.30;73.50;;;;;;5094102;28;20394;-48
2022/07/04 20:52:23;;;;;;;7.85;3.25;;;19.30;73.70;;;;;;5094121;28;20040;-54
2022/07/04 20:54:50;;;;;;;6.47;2.95;;;19.20;73.60;;;;;;5093648;28;20436;-51
2022/07/04 20:57:17;;;;;;;8.32;3.72;;;19.20;74.00;;;;;;5092663;28;20105;-49
2022/07/04 20:59:43;;;;;;;5.05;2.40;;;19.10;73.70;;;;;;5092766;28;20043;-49
2022/07/04 21:02:10;;;;;;;5.13;2.33;;;19.00;73.10;;;;;;5094333;28;20039;-49
2022/07/04 21:04:38;;;;;;;3.50;1.88;;;19.00;73.10;;;;;;5095356;28;20402;-53
2022/07/04 21:07:25;;;;;;;3.47;1.90;;;18.90;72.60;;;;;;5096088;28;20108;-49
2022/07/04 21:09:52;;;;;;;3.58;1.70;;;18.90;72.80;;;;;;5106029;28;20093;-51
2022/07/04 21:12:18;;;;;;;5.43;2.00;;;18.90;72.70;;;;;;5110109;28;20046;-45
2022/07/04 21:14:45;;;;;;;5.13;2.00;;;18.90;72.70;;;;;;5102632;28;20059;-45
2022/07/04 21:17:12;;;;;;;5.93;2.58;;;18.80;72.70;;;;;;5097877;28;20077;-50
2022/07/04 21:19:39;;;;;;;6.18;1.90;;;18.70;73.00;;;;;;5110728;28;20044;-49
2022/07/04 21:22:06;;;;;;;2.83;1.40;;;18.70;73.00;;;;;;5103430;28;20048;-48
2022/07/04 21:24:33;;;;;;;3.17;1.70;;;18.70;73.30;;;;;;5107519;28;20032;-50
2022/07/04 21:27:00;;;;;;;2.28;1.50;;;18.60;73.40;;;;;;5096253;28;20444;-49
